createdAt,value
2019-03-22T00:02:12.066Z,101371.97
2019-03-22T00:04:40.939Z,101369.36
2019-03-22T00:07:09.800Z,101362.48
2019-03-22T00:09:38.645Z,101366.41
2019-03-22T00:12:07.470Z,101364.27
2019-03-22T00:14:37.087Z,101365.70
2019-03-22T00:17:06.110Z,101359.30
2019-03-22T00:19:35.023Z,101358.56
2019-03-22T00:22:03.933Z,101358.69
2019-03-22T00:24:33.109Z,101357.03
2019-03-22T00:27:02.035Z,101356.80
2019-03-22T00:29:30.931Z,101358.80
2019-03-22T00:31:59.780Z,101354.19
2019-03-22T00:34:28.738Z,101355.95
2019-03-22T00:36:58.128Z,101354.42
2019-03-22T00:39:26.977Z,101357.72
2019-03-22T00:41:56.103Z,101355.45
2019-03-22T00:44:24.970Z,101354.04
2019-03-22T00:46:53.813Z,101349.86
2019-03-22T00:49:22.679Z,101350.94
2019-03-22T00:51:51.808Z,101352.59
2019-03-22T00:54:20.989Z,101349.52
2019-03-22T00:56:49.809Z,101351.53
2019-03-22T00:59:18.648Z,101352.58
2019-03-22T01:01:47.446Z,101353.64
2019-03-22T01:04:16.293Z,101349.23
2019-03-22T01:06:45.133Z,101356.70
2019-03-22T01:09:13.968Z,101354.58
2019-03-22T01:11:43.136Z,101346.49
2019-03-22T01:14:11.976Z,101344.80
2019-03-22T01:16:40.811Z,101343.27
2019-03-22T01:19:09.657Z,101345.64
2019-03-22T01:21:38.507Z,101350.38
2019-03-22T01:24:07.326Z,101345.73
2019-03-22T01:26:36.305Z,101346.80
2019-03-22T01:29:05.152Z,101346.92
2019-03-22T01:31:33.999Z,101349.05
2019-03-22T01:34:02.936Z,101339.70
2019-03-22T01:36:32.042Z,101334.82
2019-03-22T01:39:01.173Z,101332.81
2019-03-22T01:41:30.208Z,101337.05
2019-03-22T01:43:59.037Z,101334.30
2019-03-22T01:46:28.891Z,101335.95
2019-03-22T01:48:57.706Z,101332.97
2019-03-22T01:51:26.593Z,101336.04
2019-03-22T01:53:55.484Z,101338.17
2019-03-22T01:56:24.346Z,101339.48
2019-03-22T01:58:53.171Z,101337.94
2019-03-22T02:01:22.051Z,101339.24
2019-03-22T02:03:50.909Z,101338.77
2019-03-22T02:06:19.775Z,101338.77
2019-03-22T02:08:48.604Z,101331.07
2019-03-22T02:11:17.502Z,101331.42
2019-03-22T02:13:46.873Z,101332.84
2019-03-22T02:16:15.791Z,101336.40
2019-03-22T02:18:45.007Z,101332.14
2019-03-22T02:21:13.897Z,101334.36
2019-03-22T02:23:42.783Z,101328.44
2019-03-22T02:26:12.022Z,101328.44
2019-03-22T02:28:41.857Z,101328.32
2019-03-22T02:31:11.004Z,101330.45
2019-03-22T02:33:39.844Z,101322.75
2019-03-22T02:36:08.858Z,101318.97
2019-03-22T02:38:37.711Z,101315.66
2019-03-22T02:41:06.598Z,101319.30
2019-03-22T02:43:35.476Z,101316.80
2019-03-22T02:46:04.365Z,101318.70
2019-03-22T02:48:33.213Z,101318.44
2019-03-22T02:51:02.127Z,101328.73
2019-03-22T02:53:31.072Z,101326.33
2019-03-22T02:56:00.098Z,101331.30
2019-03-22T02:58:29.136Z,101329.84
2019-03-22T03:00:58.051Z,101331.97
2019-03-22T03:03:26.905Z,101339.27
2019-03-22T03:05:55.768Z,101340.53
2019-03-22T03:08:24.970Z,101341.08
2019-03-22T03:10:53.891Z,101340.45
2019-03-22T03:13:23.117Z,101344.83
2019-03-22T03:15:52.342Z,101339.27
2019-03-22T03:18:21.635Z,101331.45
2019-03-22T03:20:50.613Z,101341.75
2019-03-22T03:23:19.920Z,101334.77
2019-03-22T03:25:49.904Z,101338.33
2019-03-22T03:28:18.788Z,101337.02
2019-03-22T03:30:47.700Z,101334.89
2019-03-22T03:33:16.580Z,101337.61
2019-03-22T03:35:46.433Z,101337.84
2019-03-22T03:38:15.335Z,101336.73
2019-03-22T03:40:44.218Z,101329.83
2019-03-22T03:43:14.370Z,101336.76
2019-03-22T03:45:43.240Z,101340.53
2019-03-22T03:48:12.160Z,101335.39
2019-03-22T03:50:41.031Z,101344.69
2019-03-22T03:53:10.026Z,101344.69
2019-03-22T03:55:41.862Z,101343.86
2019-03-22T03:58:10.748Z,101345.63
2019-03-22T04:00:39.673Z,101355.20
2019-03-22T04:03:08.586Z,101357.56
2019-03-22T04:05:37.520Z,101358.11
2019-03-22T04:08:06.571Z,101355.16
2019-03-22T04:10:35.449Z,101359.28
2019-03-22T04:13:04.478Z,101365.25
2019-03-22T04:15:33.426Z,101364.73
2019-03-22T04:18:02.459Z,101369.62
2019-03-22T04:20:31.384Z,101366.79
2019-03-22T04:23:00.341Z,101373.08
2019-03-22T04:25:30.231Z,101378.11
2019-03-22T04:27:59.106Z,101376.91
2019-03-22T04:30:28.310Z,101373.95
2019-03-22T04:32:57.287Z,101378.44
2019-03-22T04:35:26.211Z,101372.95
2019-03-22T04:37:55.094Z,101376.59
2019-03-22T04:40:26.138Z,101379.84
2019-03-22T04:42:55.518Z,101378.66
2019-03-22T04:45:27.069Z,101374.04
2019-03-22T04:48:04.934Z,101375.45
2019-03-22T04:50:40.613Z,101366.89
2019-03-22T04:53:14.821Z,101371.27
2019-03-22T04:55:50.038Z,101374.97
2019-03-22T04:58:20.819Z,101372.48
2019-03-22T05:00:52.057Z,101372.37
2019-03-22T05:03:21.383Z,101369.49
2019-03-22T05:05:52.261Z,101369.96
2019-03-22T05:08:25.048Z,101370.25
2019-03-22T05:10:56.825Z,101371.80
2019-03-22T05:13:26.933Z,101374.04
2019-03-22T05:15:57.228Z,101374.39
2019-03-22T05:18:29.710Z,101381.25
2019-03-22T05:21:00.331Z,101376.89
2019-03-22T05:23:31.224Z,101380.31
2019-03-22T05:26:01.901Z,101381.61
2019-03-22T05:28:32.774Z,101377.36
2019-03-22T05:31:29.972Z,101383.85
2019-03-22T05:33:58.857Z,101387.39
2019-03-22T05:36:27.728Z,101388.33
2019-03-22T05:38:56.595Z,101391.03
2019-03-22T05:41:25.482Z,101387.24
2019-03-22T05:43:54.334Z,101392.87
2019-03-22T05:46:23.543Z,101398.54
2019-03-22T05:48:55.408Z,101399.69
2019-03-22T05:51:24.420Z,101403.98
2019-03-22T05:53:53.373Z,101408.89
2019-03-22T05:56:22.296Z,101412.63
2019-03-22T05:58:51.258Z,101417.75
2019-03-22T06:01:20.174Z,101411.47
2019-03-22T06:03:49.391Z,101414.53
2019-03-22T06:06:19.370Z,101412.30
2019-03-22T06:08:48.246Z,101415.25
2019-03-22T06:11:17.148Z,101418.11
2019-03-22T06:13:46.008Z,101426.09
2019-03-22T06:16:14.973Z,101431.64
2019-03-22T06:18:43.906Z,101431.06
2019-03-22T06:21:13.051Z,101433.13
2019-03-22T06:23:43.265Z,101423.83
2019-03-22T06:26:12.231Z,101425.77
2019-03-22T06:28:41.092Z,101431.12
2019-03-22T06:31:10.284Z,101427.77
2019-03-22T06:33:39.526Z,101431.73
2019-03-22T06:36:08.363Z,101440.44
2019-03-22T06:38:37.286Z,101428.34
2019-03-22T06:41:06.133Z,101431.45
2019-03-22T06:43:36.454Z,101429.75
2019-03-22T06:46:05.296Z,101426.02
2019-03-22T06:48:34.177Z,101427.00
2019-03-22T06:51:03.050Z,101438.22
2019-03-22T06:53:32.331Z,101438.17
2019-03-22T06:56:01.174Z,101439.78
2019-03-22T06:58:30.059Z,101437.60
2019-03-22T07:00:59.036Z,101435.67
2019-03-22T07:03:27.916Z,101438.58
2019-03-22T07:05:56.779Z,101437.50
2019-03-22T07:08:25.754Z,101435.08
2019-03-22T07:10:54.586Z,101427.96
2019-03-22T07:13:23.798Z,101430.27
2019-03-22T07:15:52.650Z,101426.81
2019-03-22T07:18:21.635Z,101429.27
2019-03-22T07:20:50.505Z,101424.48
2019-03-22T07:23:19.373Z,101421.72
2019-03-22T07:25:48.539Z,101424.27
2019-03-22T07:28:17.726Z,101420.77
2019-03-22T07:30:47.424Z,101417.06
2019-03-22T07:33:16.645Z,101430.05
2019-03-22T07:35:45.596Z,101426.39
2019-03-22T07:38:14.852Z,101423.23
2019-03-22T07:40:43.710Z,101424.32
2019-03-22T07:43:12.596Z,101422.28
2019-03-22T07:45:41.560Z,101423.89
2019-03-22T07:48:10.986Z,101411.08
2019-03-22T07:50:40.042Z,101405.75
2019-03-22T07:53:09.605Z,101409.48
2019-03-22T07:55:38.571Z,101405.94
2019-03-22T07:58:07.439Z,101405.55
2019-03-22T08:00:36.317Z,101396.20
2019-03-22T08:03:05.320Z,101393.80
2019-03-22T08:05:34.170Z,101394.55
2019-03-22T08:08:03.117Z,101390.95
2019-03-22T08:10:32.409Z,101389.05
2019-03-22T08:13:01.251Z,101394.08
2019-03-22T08:15:32.774Z,101386.89
2019-03-22T08:18:01.710Z,101390.05
2019-03-22T08:20:30.829Z,101385.13
2019-03-22T08:22:59.719Z,101385.22
2019-03-22T08:25:28.642Z,101388.68
2019-03-22T08:27:57.660Z,101383.69
2019-03-22T08:30:26.589Z,101379.16
2019-03-22T08:32:55.481Z,101377.20
2019-03-22T08:35:24.724Z,101375.53
2019-03-22T08:37:53.719Z,101370.05
2019-03-22T08:40:22.561Z,101367.72
2019-03-22T08:42:51.464Z,101360.72
2019-03-22T08:45:20.329Z,101357.48
2019-03-22T08:47:49.243Z,101364.23
2019-03-22T08:50:18.574Z,101357.62
2019-03-22T08:52:47.425Z,101359.34
2019-03-22T08:55:16.354Z,101352.48
2019-03-22T08:57:45.224Z,101355.05
2019-03-22T09:00:14.703Z,101355.67
2019-03-22T09:02:43.678Z,101353.03
2019-03-22T09:05:12.567Z,101354.20
2019-03-22T09:07:41.460Z,101345.87
2019-03-22T09:10:12.666Z,101352.34
2019-03-22T09:12:41.647Z,101351.81
2019-03-22T09:15:11.947Z,101349.81
2019-03-22T09:17:40.827Z,101340.00
2019-03-22T09:20:11.826Z,101347.27
2019-03-22T09:22:40.979Z,101336.19
2019-03-22T09:25:09.827Z,101333.58
2019-03-22T09:27:38.691Z,101325.20
2019-03-22T09:30:08.670Z,101326.19
2019-03-22T09:32:38.727Z,101323.02
2019-03-22T09:35:07.731Z,101323.09
2019-03-22T09:37:36.599Z,101320.95
2019-03-22T09:40:08.425Z,101315.27
2019-03-22T09:42:36.901Z,101323.14
2019-03-22T09:45:06.921Z,101321.30
2019-03-22T09:47:35.775Z,101321.22
2019-03-22T09:50:06.957Z,101322.02
2019-03-22T09:52:36.742Z,101315.88
2019-03-22T09:55:13.438Z,101315.98
2019-03-22T09:57:36.676Z,101317.81
2019-03-22T10:00:06.954Z,101311.11
2019-03-22T10:02:35.787Z,101311.02
2019-03-22T10:05:06.202Z,101311.67
2019-03-22T10:07:35.180Z,101311.80
2019-03-22T10:10:05.330Z,101305.91
2019-03-22T10:12:34.295Z,101305.33
2019-03-22T10:15:03.946Z,101307.94
2019-03-22T10:17:34.397Z,101308.59
2019-03-22T10:20:03.661Z,101304.63
2019-03-22T10:22:32.629Z,101306.47
2019-03-22T10:25:01.770Z,101300.41
2019-03-22T10:27:30.655Z,101293.18
2019-03-22T10:29:59.536Z,101298.35
2019-03-22T10:32:29.496Z,101296.15
2019-03-22T10:34:59.587Z,101295.21
2019-03-22T10:37:28.524Z,101287.97
2019-03-22T10:39:57.369Z,101290.22
2019-03-22T10:42:26.298Z,101279.89
2019-03-22T10:44:55.361Z,101279.22
2019-03-22T10:47:25.508Z,101281.30
2019-03-22T10:49:54.620Z,101268.23
2019-03-22T10:52:23.591Z,101262.16
2019-03-22T10:54:52.572Z,101263.37
2019-03-22T10:57:21.421Z,101259.73
2019-03-22T10:59:50.322Z,101257.20
2019-03-22T11:02:19.252Z,101258.14
2019-03-22T11:04:48.145Z,101258.50
2019-03-22T11:07:17.096Z,101257.28
2019-03-22T11:09:45.899Z,101258.73
2019-03-22T11:12:14.776Z,101255.08
2019-03-22T11:14:45.675Z,101256.23
2019-03-22T11:17:14.419Z,101254.88
2019-03-22T11:19:43.628Z,101250.56
2019-03-22T11:22:12.521Z,101245.96
2019-03-22T11:24:41.400Z,101244.94
2019-03-22T11:27:10.213Z,101240.33
2019-03-22T11:29:39.170Z,101237.06
2019-03-22T11:32:12.517Z,101235.17
2019-03-22T11:34:38.929Z,101229.45
2019-03-22T11:37:07.911Z,101230.55
2019-03-22T11:39:37.240Z,101224.31
2019-03-22T11:42:06.099Z,101231.03
2019-03-22T11:44:34.974Z,101220.16
2019-03-22T11:47:03.926Z,101217.70
2019-03-22T11:49:33.620Z,101223.36
2019-03-22T11:52:02.510Z,101216.98
2019-03-22T11:54:31.426Z,101218.75
2019-03-22T11:57:00.559Z,101210.23
2019-03-22T11:59:29.413Z,101211.37
2019-03-22T12:01:58.337Z,101206.66
2019-03-22T12:04:27.303Z,101205.88
2019-03-22T12:06:56.377Z,101201.31
2019-03-22T12:09:25.297Z,101197.31
2019-03-22T12:11:54.187Z,101191.62
2019-03-22T12:14:23.115Z,101191.60
2019-03-22T12:16:52.032Z,101182.34
2019-03-22T12:19:20.988Z,101184.52
2019-03-22T12:21:49.924Z,101180.23
2019-03-22T12:24:18.850Z,101180.23
2019-03-22T12:26:47.747Z,101175.48
2019-03-22T12:29:17.219Z,101178.01
2019-03-22T12:31:45.977Z,101178.63
2019-03-22T12:34:15.038Z,101176.70
2019-03-22T12:36:45.692Z,101174.56
2019-03-22T12:39:14.560Z,101171.63
2019-03-22T12:41:43.824Z,101176.73
2019-03-22T12:44:13.054Z,101177.00
2019-03-22T12:46:42.133Z,101174.22
2019-03-22T12:49:10.990Z,101171.40
2019-03-22T12:51:40.326Z,101178.70
2019-03-22T12:54:09.359Z,101180.61
2019-03-22T12:56:38.159Z,101174.39
2019-03-22T12:59:06.982Z,101177.28
2019-03-22T13:01:36.770Z,101167.38
2019-03-22T13:04:05.668Z,101170.36
2019-03-22T13:06:34.517Z,101160.53
2019-03-22T13:09:06.926Z,101160.03
2019-03-22T13:11:36.301Z,101159.41
2019-03-22T13:14:05.081Z,101157.74
2019-03-22T13:16:33.939Z,101161.75
2019-03-22T13:19:02.896Z,101156.58
2019-03-22T13:21:32.354Z,101155.91
2019-03-22T13:24:01.239Z,101158.24
2019-03-22T13:26:30.452Z,101152.52
2019-03-22T13:28:59.740Z,101156.84
2019-03-22T13:31:28.741Z,101153.39
2019-03-22T13:33:57.615Z,101155.60
2019-03-22T13:36:26.472Z,101144.53
2019-03-22T13:38:55.399Z,101147.05
2019-03-22T13:41:24.295Z,101146.63
2019-03-22T13:43:53.343Z,101145.67
2019-03-22T13:46:22.609Z,101142.77
2019-03-22T13:48:51.546Z,101140.06
2019-03-22T13:51:20.490Z,101140.29
2019-03-22T13:53:49.795Z,101133.95
2019-03-22T13:56:18.729Z,101136.38
2019-03-22T13:58:48.563Z,101134.16
2019-03-22T14:01:17.433Z,101132.48
2019-03-22T14:03:46.354Z,101131.38
2019-03-22T14:06:16.454Z,101125.90
2019-03-22T14:08:46.531Z,101126.41
2019-03-22T14:11:15.461Z,101124.05
2019-03-22T14:13:45.618Z,101122.48
2019-03-22T14:16:14.688Z,101111.33
2019-03-22T14:18:44.030Z,101114.83
2019-03-22T14:21:12.949Z,101113.66
2019-03-22T14:23:42.250Z,101106.53
2019-03-22T14:26:11.067Z,101112.75
2019-03-22T14:28:39.942Z,101105.22
2019-03-22T14:31:08.869Z,101099.34
2019-03-22T14:33:38.179Z,101091.70
2019-03-22T14:36:07.036Z,101086.48
2019-03-22T14:38:36.195Z,101089.34
2019-03-22T14:41:05.130Z,101083.72
2019-03-22T14:43:35.621Z,101081.64
2019-03-22T14:46:04.669Z,101077.38
2019-03-22T14:48:33.507Z,101075.19
2019-03-22T14:51:02.801Z,101080.00
2019-03-22T14:53:31.716Z,101070.59
2019-03-22T14:56:00.655Z,101072.82
2019-03-22T14:58:29.524Z,101066.66
2019-03-22T15:00:58.325Z,101063.73
2019-03-22T15:03:27.595Z,101050.02
2019-03-22T15:05:57.431Z,101054.69
2019-03-22T15:08:26.251Z,101053.52
2019-03-22T15:10:55.129Z,101053.66
2019-03-22T15:13:31.753Z,101052.66
2019-03-22T15:16:14.176Z,101052.17
2019-03-22T15:18:52.228Z,101054.65
2019-03-22T15:21:39.686Z,101057.29
2019-03-22T15:24:26.641Z,101050.52
2019-03-22T15:27:27.261Z,101041.80
2019-03-22T15:30:05.127Z,101036.30
2019-03-22T15:33:02.037Z,101029.67
2019-03-22T15:35:48.814Z,101040.91
2019-03-22T15:38:40.152Z,101040.13
2019-03-22T15:41:09.097Z,101030.44
2019-03-22T15:43:38.155Z,101031.62
2019-03-22T15:46:07.127Z,101029.39
2019-03-22T15:48:35.976Z,101027.49
2019-03-22T15:51:04.873Z,101023.53
2019-03-22T15:53:33.699Z,101028.45
2019-03-22T15:56:04.613Z,101026.12
2019-03-22T15:58:33.452Z,101026.48
2019-03-22T16:01:02.523Z,101030.01
2019-03-22T16:03:32.556Z,101025.81
2019-03-22T16:06:01.810Z,101029.06
2019-03-22T16:08:30.684Z,101028.57
2019-03-22T16:10:59.572Z,101025.20
2019-03-22T16:13:28.434Z,101027.91
2019-03-22T16:15:57.580Z,101028.73
2019-03-22T16:18:26.454Z,101030.17
2019-03-22T16:20:59.973Z,101028.09
2019-03-22T16:23:26.236Z,101029.96
2019-03-22T16:25:55.040Z,101024.55
2019-03-22T16:28:23.903Z,101016.09
2019-03-22T16:30:52.698Z,101020.89
2019-03-22T16:33:21.573Z,101020.52
2019-03-22T16:35:50.467Z,101018.60
2019-03-22T16:38:19.357Z,101017.33
2019-03-22T16:40:48.518Z,101014.77
2019-03-22T16:43:17.480Z,101022.90
2019-03-22T16:45:46.296Z,101016.03
2019-03-22T16:48:27.584Z,101018.72
2019-03-22T16:51:08.313Z,101016.02
2019-03-22T16:53:40.951Z,101019.48
2019-03-22T16:56:09.824Z,101022.08
2019-03-22T16:58:38.766Z,101022.70
2019-03-22T17:01:07.731Z,101023.88
2019-03-22T17:03:37.065Z,101026.36
2019-03-22T17:06:05.967Z,101036.02
2019-03-22T17:08:35.135Z,101029.05
2019-03-22T17:11:04.662Z,101030.63
2019-03-22T17:13:33.655Z,101019.55
2019-03-22T17:16:02.515Z,101033.63
2019-03-22T17:18:31.755Z,101028.94
2019-03-22T17:21:00.646Z,101032.03
2019-03-22T17:23:29.491Z,101028.19
2019-03-22T17:25:58.380Z,101026.45
2019-03-22T17:28:27.313Z,101026.30
2019-03-22T17:30:56.174Z,101025.88
2019-03-22T17:33:25.031Z,101030.57
2019-03-22T17:35:53.880Z,101033.65
2019-03-22T17:38:24.566Z,101028.18
2019-03-22T17:40:54.902Z,101039.51
2019-03-22T17:43:23.801Z,101032.21
2019-03-22T17:45:52.769Z,101035.72
2019-03-22T17:48:21.640Z,101038.52
2019-03-22T17:50:50.549Z,101039.16
2019-03-22T17:53:19.581Z,101041.68
2019-03-22T17:55:48.478Z,101041.50
2019-03-22T17:58:18.460Z,101043.77
2019-03-22T18:00:47.668Z,101043.09
2019-03-22T18:03:16.510Z,101051.66
2019-03-22T18:05:45.807Z,101053.11
2019-03-22T18:08:14.753Z,101049.22
2019-03-22T18:10:43.787Z,101047.46
2019-03-22T18:13:13.163Z,101059.54
2019-03-22T18:15:42.101Z,101063.61
2019-03-22T18:18:11.062Z,101063.20
2019-03-22T18:20:40.139Z,101063.56
2019-03-22T18:23:09.207Z,101065.68
2019-03-22T18:25:38.802Z,101071.86
2019-03-22T18:28:07.758Z,101067.63
2019-03-22T18:30:36.636Z,101069.72
2019-03-22T18:33:05.501Z,101075.61
2019-03-22T18:35:34.712Z,101068.59
2019-03-22T18:40:52.556Z,101074.33
2019-03-22T18:43:20.909Z,101077.40
2019-03-22T18:45:50.110Z,101074.14
2019-03-22T18:48:18.587Z,101078.22
2019-03-22T18:50:56.425Z,101075.84
2019-03-22T18:53:17.578Z,101079.44
2019-03-22T18:55:45.939Z,101077.68
2019-03-22T18:58:14.437Z,101081.75
2019-03-22T19:00:42.969Z,101082.17
2019-03-22T19:03:11.772Z,101085.02
2019-03-22T19:05:40.504Z,101078.79
2019-03-22T19:08:08.925Z,101079.62
2019-03-22T19:10:37.185Z,101078.08
2019-03-22T19:13:07.716Z,101082.48
2019-03-22T19:15:39.113Z,101085.55
2019-03-22T19:18:07.662Z,101084.69
2019-03-22T19:20:37.084Z,101083.78
2019-03-22T19:23:05.580Z,101081.87
2019-03-22T19:25:34.034Z,101088.73
2019-03-22T19:28:02.593Z,101086.03
2019-03-22T19:30:31.215Z,101086.94
2019-03-22T19:32:59.885Z,101085.50
2019-03-22T19:35:28.352Z,101084.06
2019-03-22T19:37:56.796Z,101081.80
2019-03-22T19:40:25.441Z,101082.71
2019-03-22T19:42:54.738Z,101079.30
2019-03-22T19:45:23.190Z,101080.81
2019-03-22T19:47:51.648Z,101085.98
2019-03-22T19:50:20.240Z,101085.66
2019-03-22T19:52:48.614Z,101088.83
2019-03-22T19:55:18.412Z,101090.49
2019-03-22T19:57:46.913Z,101089.17
2019-03-22T20:00:15.549Z,101083.09
2019-03-22T20:02:44.206Z,101086.71
2019-03-22T20:05:27.269Z,101092.17
2019-03-22T20:07:55.865Z,101095.78
2019-03-22T20:10:24.453Z,101086.59
2019-03-22T20:12:54.065Z,101093.81
2019-03-22T20:15:22.588Z,101097.44
2019-03-22T20:17:51.429Z,101093.48
2019-03-22T20:20:19.987Z,101097.40
2019-03-22T20:22:48.657Z,101095.08
2019-03-22T20:25:17.578Z,101096.72
2019-03-22T20:28:05.554Z,101096.53
2019-03-22T20:30:35.231Z,101102.61
2019-03-22T20:33:04.166Z,101102.39
2019-03-22T20:35:32.721Z,101106.17
2019-03-22T20:38:02.367Z,101102.03
2019-03-22T20:40:30.885Z,101103.36
2019-03-22T20:42:59.785Z,101102.02
2019-03-22T20:45:28.706Z,101107.61
2019-03-22T20:47:57.708Z,101105.77
2019-03-22T20:50:35.388Z,101109.36
2019-03-22T20:53:04.195Z,101109.36
2019-03-22T20:55:33.115Z,101109.48
2019-03-22T20:58:11.472Z,101101.11
2019-03-22T21:00:40.375Z,101116.20
2019-03-22T21:03:09.324Z,101113.08
2019-03-22T21:05:39.509Z,101116.49
2019-03-22T21:08:08.443Z,101111.39
2019-03-22T21:10:37.539Z,101115.17
2019-03-22T21:13:06.608Z,101109.39
2019-03-22T21:15:35.853Z,101108.85
2019-03-22T21:18:12.806Z,101109.80
2019-03-22T21:20:41.760Z,101107.17
2019-03-22T21:23:11.041Z,101106.30
2019-03-22T21:25:41.042Z,101109.72
2019-03-22T21:28:10.544Z,101105.77
2019-03-22T21:30:48.248Z,101105.73
2019-03-22T21:33:17.558Z,101109.50
2019-03-22T21:35:48.631Z,101108.47
2019-03-22T21:38:18.392Z,101106.95
2019-03-22T21:40:47.471Z,101105.95
2019-03-22T21:43:16.806Z,101106.41
2019-03-22T21:45:45.711Z,101103.77
2019-03-22T21:48:16.027Z,101099.11
2019-03-22T21:50:45.318Z,101097.56
2019-03-22T21:53:14.531Z,101101.33
2019-03-22T21:55:43.460Z,101099.02
2019-03-22T21:58:13.010Z,101098.16
2019-03-22T22:00:45.695Z,101103.67
2019-03-22T22:03:23.784Z,101093.77
2019-03-22T22:05:56.137Z,101105.87
2019-03-22T22:08:25.389Z,101101.91
2019-03-22T22:10:59.607Z,101104.20
2019-03-22T22:13:25.461Z,101107.81
2019-03-22T22:15:54.326Z,101105.28
2019-03-22T22:18:23.217Z,101103.43
2019-03-22T22:20:52.089Z,101106.70
2019-03-22T22:23:21.301Z,101110.23
2019-03-22T22:25:50.247Z,101104.26
2019-03-22T22:28:19.532Z,101110.76
2019-03-22T22:30:50.694Z,101109.06
2019-03-22T22:33:27.904Z,101109.85
2019-03-22T22:35:58.994Z,101109.28
2019-03-22T22:38:27.577Z,101107.36
2019-03-22T22:40:56.816Z,101110.44
2019-03-22T22:43:25.831Z,101112.15
2019-03-22T22:45:55.075Z,101113.33
2019-03-22T22:48:23.954Z,101116.64
2019-03-22T22:50:52.804Z,101114.34
2019-03-22T22:53:21.892Z,101115.43
2019-03-22T22:55:50.923Z,101111.98
2019-03-22T22:58:19.831Z,101113.45
2019-03-22T23:00:50.295Z,101117.16
2019-03-22T23:03:21.081Z,101121.69
2019-03-22T23:05:50.062Z,101119.70
2019-03-22T23:08:19.058Z,101114.06
2019-03-22T23:10:48.965Z,101113.38
2019-03-22T23:13:17.927Z,101116.15
2019-03-22T23:15:46.967Z,101114.98
2019-03-22T23:18:16.114Z,101121.47
2019-03-22T23:20:45.350Z,101119.75
2019-03-22T23:23:14.776Z,101114.98
2019-03-22T23:25:44.097Z,101112.78
2019-03-22T23:28:13.521Z,101112.06
2019-03-22T23:30:43.617Z,101111.35
2019-03-22T23:33:13.010Z,101114.61
2019-03-22T23:35:41.985Z,101110.48
2019-03-22T23:38:10.873Z,101112.06
2019-03-22T23:40:40.458Z,101120.80
2019-03-22T23:43:09.344Z,101112.75
2019-03-22T23:45:39.634Z,101119.11
2019-03-22T23:48:08.623Z,101128.53
2019-03-22T23:50:37.484Z,101122.05
2019-03-22T23:53:06.384Z,101125.59
2019-03-22T23:55:35.242Z,101123.45
2019-03-22T23:58:04.207Z,101122.27
